Hovedside
METAR-TAF:

METAR-TAF

Lufthavner :

Malabo, Ekvatorial-Guinea

Malabo internasjonale lufthavn

breddegrad: 03-45-18N, lengdegrad: 08-42-31E, høyde over havet: 23 m

Gjeldene værobservasjon

Denne rapporten ble laget for 1 time og 23 minutter siden, klokken 20:00 UTC
Vind 4 kt fra Sørvest
Temperatur 26°C
Luftfuktighet 89%
Trykk 1011 hPa
Sikt 10 km eller mer
Få skyer i en høyde av 1000 ft

METAR: FGSL 182000Z 23004KT 9999 FEW010 26/24 Q1011 NOSIG

Tid: 22:23 (21:23 UTC)

Varsel

Denne rapporten ble laget for 4 timer og 23 minutter siden, klokken 17:00 UTC
Varsel gyldig fra 18. klokken 18 UTC til 19. klokken 24 UTC
Vind 6 kt fra Vest-sørvest
Sikt: 8000 m
Spredte skyer i en høyde av 1000 ft
Midlertidig
fra 19. klokken 04 UTC til 19. klokken 07 UTC
Sikt: 3000 m
dis
Sannsynlighet 30% :
Midlertidig
fra 19. klokken 08 UTC til 19. klokken 18 UTC
Sikt: 4000 m
dis

TAF: FGSL 181700Z 1818/1924 24006KT 8000 SCT010 TEMPO 1904/1907 3000 BR PROB30 TEMPO 1908/1918 4000 HZ

Værobservasjoner og værvarsel for over 4000 flyplasser (METAR- og TAF-rapporter).

Tilgjengelige stasjoner er representert av de røde og gule prikkene på kartet.

Hold musepekeren over prikken for å se navnet på stasjonen.

Klikk så for å se værobservasjoner og -varsler.

For å forandre kartet kan du klikke på den grønne knappen med svart kryss for å zoome inn, på den grønne knappen med strek for å zoome ut, eller på de grønne pilene for å se tilstøtende kart.


METAR-TAF: